NSZ82F EKCH-EDDV
Flight info
| Callsign | NSZ82F |
|---|---|
| Flight time | N/A |
| Altitude | 28000 |
| Route | NEXEN T503 GIMRU DCT MICOS DCT ELSOB/N0453F290 N850 NIE |
| Aircraft | B738/M-SDE2E3FGHIRWXY/LB1 |
Departure
| Time | 2026-05-05 10:05 |
|---|---|
| Airport | Copenhagen Kastrup Airport (EKCH) |
Arrival
| Time | N/A |
|---|---|
| Airport | Hannover Airport (EDDV) |
| Time | Latitude | Longitude | Altitude | Speed | Heading |
|---|---|---|---|---|---|
| 2026-05-05 09:23 | 55.62647 | 12.64561 | 23 ft | 0 kts | 282° |
| 2026-05-05 09:51 | 55.62645 | 12.64582 | 28 ft | 2 kts | 279° |
| 2026-05-05 09:51 | 55.62642 | 12.64611 | 27 ft | 2 kts | 276° |
| 2026-05-05 09:51 | 55.62642 | 12.64640 | 28 ft | 2 kts | 259° |
| 2026-05-05 09:52 | 55.62649 | 12.64666 | 28 ft | 2 kts | 204° |
| 2026-05-05 09:52 | 55.62658 | 12.64671 | 23 ft | 0 kts | 192° |
| 2026-05-05 09:58 | 55.62653 | 12.64669 | 23 ft | 3 kts | 192° |
| 2026-05-05 09:58 | 55.62616 | 12.64656 | 23 ft | 8 kts | 186° |
| 2026-05-05 09:58 | 55.62556 | 12.64652 | 23 ft | 9 kts | 180° |
| 2026-05-05 09:59 | 55.62510 | 12.64657 | 26 ft | 2 kts | 173° |
| 2026-05-05 09:59 | 55.62498 | 12.64659 | 26 ft | 2 kts | 173° |
| 2026-05-05 09:59 | 55.62482 | 12.64663 | 23 ft | 2 kts | 173° |
| 2026-05-05 09:59 | 55.62465 | 12.64668 | 25 ft | 2 kts | 171° |
| 2026-05-05 10:00 | 55.62448 | 12.64672 | 25 ft | 2 kts | 171° |
| 2026-05-05 10:00 | 55.62419 | 12.64677 | 23 ft | 8 kts | 176° |
| 2026-05-05 10:00 | 55.62336 | 12.64706 | 24 ft | 15 kts | 146° |
| 2026-05-05 10:00 | 55.62238 | 12.64789 | 23 ft | 18 kts | 187° |
| 2026-05-05 10:01 | 55.62129 | 12.64679 | 24 ft | 18 kts | 214° |
| 2026-05-05 10:01 | 55.62028 | 12.64560 | 23 ft | 17 kts | 213° |
| 2026-05-05 10:01 | 55.61917 | 12.64506 | 23 ft | 17 kts | 175° |
| 2026-05-05 10:01 | 55.61806 | 12.64545 | 23 ft | 16 kts | 169° |
| 2026-05-05 10:02 | 55.61700 | 12.64575 | 25 ft | 11 kts | 176° |
| 2026-05-05 10:02 | 55.61631 | 12.64519 | 26 ft | 13 kts | 214° |
| 2026-05-05 10:02 | 55.61546 | 12.64419 | 23 ft | 16 kts | 216° |
| 2026-05-05 10:02 | 55.61451 | 12.64306 | 27 ft | 16 kts | 212° |
| 2026-05-05 10:03 | 55.61353 | 12.64198 | 24 ft | 18 kts | 212° |
| 2026-05-05 10:03 | 55.61242 | 12.64068 | 23 ft | 21 kts | 214° |
| 2026-05-05 10:03 | 55.61110 | 12.63916 | 24 ft | 24 kts | 212° |
| 2026-05-05 10:03 | 55.60959 | 12.63743 | 26 ft | 27 kts | 213° |
| 2026-05-05 10:04 | 55.60862 | 12.63631 | 24 ft | 21 kts | 213° |
| 2026-05-05 10:04 | 55.60739 | 12.63693 | 23 ft | 15 kts | 133° |
| 2026-05-05 10:04 | 55.60698 | 12.63794 | 27 ft | 15 kts | 115° |
| 2026-05-05 10:04 | 55.60744 | 12.63970 | 25 ft | 22 kts | 41° |
| 2026-05-05 10:05 | 55.61040 | 12.64429 | 23 ft | 100 kts | 41° |
| 2026-05-05 10:05 | 55.61759 | 12.65537 | 69 ft | 169 kts | 40° |
| 2026-05-05 10:05 | 55.62696 | 12.67052 | 753 ft | 196 kts | 41° |
| 2026-05-05 10:05 | 55.63739 | 12.68765 | 1506 ft | 217 kts | 41° |
| 2026-05-05 10:06 | 55.64913 | 12.70646 | 2195 ft | 227 kts | 38° |
| 2026-05-05 10:06 | 55.66118 | 12.72459 | 2852 ft | 234 kts | 38° |
| 2026-05-05 10:06 | 55.67391 | 12.74378 | 3257 ft | 252 kts | 38° |
| 2026-05-05 10:06 | 55.68763 | 12.76471 | 3896 ft | 265 kts | 39° |
| 2026-05-05 10:07 | 55.70161 | 12.78625 | 4836 ft | 268 kts | 39° |
| 2026-05-05 10:07 | 55.71583 | 12.80828 | 5706 ft | 274 kts | 39° |
| 2026-05-05 10:07 | 55.72756 | 12.83604 | 6501 ft | 286 kts | 67° |
| 2026-05-05 10:07 | 55.73029 | 12.87092 | 7281 ft | 293 kts | 99° |
| 2026-05-05 10:08 | 55.72254 | 12.90379 | 8062 ft | 293 kts | 131° |
| 2026-05-05 10:08 | 55.70908 | 12.93103 | 8927 ft | 294 kts | 138° |
| 2026-05-05 10:08 | 55.69247 | 12.95114 | 9698 ft | 290 kts | 166° |
| 2026-05-05 10:08 | 55.67298 | 12.95605 | 10414 ft | 286 kts | 190° |
| 2026-05-05 10:09 | 55.65332 | 12.94608 | 10634 ft | 302 kts | 211° |
| 2026-05-05 10:09 | 55.63506 | 12.92568 | 10832 ft | 323 kts | 218° |
| 2026-05-05 10:09 | 55.61642 | 12.90167 | 11100 ft | 342 kts | 219° |
| 2026-05-05 10:09 | 55.59721 | 12.87635 | 11699 ft | 349 kts | 219° |
| 2026-05-05 10:10 | 55.57746 | 12.85047 | 12493 ft | 352 kts | 219° |
| 2026-05-05 10:10 | 55.55783 | 12.82501 | 13261 ft | 354 kts | 219° |
| 2026-05-05 10:10 | 55.53764 | 12.79904 | 13990 ft | 358 kts | 219° |
| 2026-05-05 10:10 | 55.51744 | 12.77322 | 14649 ft | 361 kts | 218° |
| 2026-05-05 10:11 | 55.49685 | 12.74700 | 15300 ft | 364 kts | 218° |
| 2026-05-05 10:11 | 55.47625 | 12.72083 | 15965 ft | 367 kts | 218° |
| 2026-05-05 10:11 | 55.45528 | 12.69422 | 16601 ft | 371 kts | 218° |